Time;durP1;ratioP1;P1;durP2;ratioP2;P2;SDS_P1;SDS_P2;PMS_P1;PMS_P2;Temp;Humidity;BMP_temperature;BMP_pressure;BME280_temperature;BME280_humidity;BME280_pressure;Samples;Min_cycle;Max_cycle;Signal;HPM_P1;HPM_P2
2022/03/25 00:00:07;;;;;;;25.33;19.58;;;7.90;61.60;;;;;;5022927;28;20225;-79
2022/03/25 00:02:35;;;;;;;23.25;16.42;;;7.90;61.40;;;;;;5036260;28;20218;-79
2022/03/25 00:05:02;;;;;;;22.85;18.42;;;8.00;60.90;;;;;;5030733;28;20222;-79
2022/03/25 00:07:29;;;;;;;20.92;18.70;;;8.00;60.60;;;;;;5019536;28;20199;-79
2022/03/25 00:09:56;;;;;;;25.65;20.27;;;8.00;61.30;;;;;;5036204;28;20233;-79
2022/03/25 00:12:23;;;;;;;25.33;18.33;;;7.90;61.30;;;;;;5032711;28;20236;-79
2022/03/25 00:14:49;;;;;;;24.60;17.52;;;7.80;60.80;;;;;;5015952;28;20245;-79
2022/03/25 00:17:16;;;;;;;20.25;16.52;;;7.70;61.00;;;;;;5017180;28;20293;-80
2022/03/25 00:19:44;;;;;;;20.35;15.82;;;7.70;60.90;;;;;;5036071;28;20237;-79
2022/03/25 00:22:11;;;;;;;20.25;14.90;;;7.70;60.80;;;;;;5033264;28;20225;-79
2022/03/25 00:24:38;;;;;;;18.58;15.70;;;7.80;60.10;;;;;;5016453;28;20234;-79
2022/03/25 00:27:05;;;;;;;20.35;15.23;;;7.80;59.60;;;;;;5021855;28;20213;-78
2022/03/25 00:29:32;;;;;;;25.98;16.08;;;7.80;59.70;;;;;;5038932;28;20227;-79
2022/03/25 00:31:58;;;;;;;19.35;16.33;;;7.70;60.60;;;;;;5035031;28;20281;-79
2022/03/25 00:34:25;;;;;;;21.50;17.65;;;7.50;61.60;;;;;;5015496;28;20223;-79
2022/03/25 00:36:53;;;;;;;20.65;14.55;;;7.40;62.60;;;;;;5015336;28;20208;-79
2022/03/25 00:39:20;;;;;;;22.80;15.90;;;7.40;63.30;;;;;;5035479;28;20234;-80
2022/03/25 00:41:47;;;;;;;24.98;16.50;;;7.30;63.80;;;;;;5017840;28;20592;-80
2022/03/25 00:44:14;;;;;;;20.10;15.18;;;7.40;64.20;;;;;;5015250;28;20289;-79
2022/03/25 00:46:41;;;;;;;22.17;16.85;;;7.40;64.40;;;;;;5032411;28;20240;-80
2022/03/25 00:49:08;;;;;;;24.63;17.27;;;7.30;65.30;;;;;;5017074;28;20231;-79
2022/03/25 00:51:35;;;;;;;21.05;14.52;;;7.40;64.70;;;;;;5031098;28;20203;-79
2022/03/25 00:54:04;;;;;;;24.73;15.75;;;7.40;64.50;;;;;;5035286;28;20672;-80
2022/03/25 00:56:31;;;;;;;26.00;16.48;;;7.50;64.10;;;;;;5021004;28;20207;-79
2022/03/25 00:58:57;;;;;;;19.10;15.30;;;7.50;63.80;;;;;;5015662;28;20215;-79
2022/03/25 01:01:25;;;;;;;18.08;16.17;;;7.60;64.50;;;;;;5023382;28;20218;-79
2022/03/25 01:03:52;;;;;;;20.33;16.20;;;7.60;65.10;;;;;;5025201;28;20211;-79
2022/03/25 01:06:18;;;;;;;23.40;18.15;;;7.60;65.00;;;;;;5028116;28;20199;-80
2022/03/25 01:08:45;;;;;;;18.05;15.38;;;7.60;65.00;;;;;;5032451;28;20198;-79
2022/03/25 01:11:13;;;;;;;21.17;14.82;;;7.60;65.10;;;;;;5027002;28;20214;-79
2022/03/25 01:13:40;;;;;;;17.80;13.85;;;7.60;64.60;;;;;;5025993;28;20282;-79
2022/03/25 01:16:07;;;;;;;22.33;15.55;;;7.60;64.20;;;;;;5028173;28;20223;-80
2022/03/25 01:18:35;;;;;;;20.83;14.85;;;7.60;64.10;;;;;;5030610;28;20248;-79
2022/03/25 01:21:02;;;;;;;21.38;15.90;;;7.60;64.00;;;;;;5035160;28;20237;-80
2022/03/25 01:23:28;;;;;;;19.88;15.95;;;7.60;63.80;;;;;;5034265;28;20221;-80
2022/03/25 01:25:55;;;;;;;17.27;14.63;;;7.60;63.50;;;;;;5026382;28;20195;-79
2022/03/25 01:28:23;;;;;;;19.65;15.07;;;7.60;63.70;;;;;;5017308;28;20210;-79
2022/03/25 01:30:50;;;;;;;25.60;16.85;;;7.50;64.40;;;;;;5034535;28;20230;-79
2022/03/25 01:33:18;;;;;;;20.58;15.85;;;7.50;64.20;;;;;;5033711;28;20213;-79
2022/03/25 01:35:45;;;;;;;17.63;14.70;;;7.50;64.30;;;;;;5021660;28;20226;-79
2022/03/25 01:38:13;;;;;;;23.80;17.48;;;7.50;64.00;;;;;;5035003;28;20207;-79
2022/03/25 01:40:40;;;;;;;20.02;15.05;;;7.50;64.80;;;;;;5015311;28;20227;-79
2022/03/25 01:43:08;;;;;;;19.70;15.52;;;7.40;65.70;;;;;;5014828;28;20230;-79
2022/03/25 01:45:38;;;;;;;22.73;16.58;;;7.40;66.00;;;;;;5028003;28;20207;-79
2022/03/25 01:48:12;;;;;;;20.17;16.48;;;7.30;65.90;;;;;;5015043;28;20207;-79
2022/03/25 01:50:41;;;;;;;22.35;15.88;;;7.30;65.60;;;;;;5033616;28;20234;-79
2022/03/25 01:53:11;;;;;;;21.35;14.80;;;7.30;65.40;;;;;;5034110;28;20672;-79
2022/03/25 01:55:39;;;;;;;20.48;15.77;;;7.20;65.20;;;;;;5021654;28;20229;-79
2022/03/25 01:58:06;;;;;;;21.17;15.25;;;7.20;65.50;;;;;;5038626;28;20596;-79
2022/03/25 02:00:34;;;;;;;22.23;16.55;;;7.00;66.00;;;;;;5020570;28;20766;-79
2022/03/25 02:03:02;;;;;;;20.50;16.05;;;6.80;66.10;;;;;;5036738;28;20214;-79
2022/03/25 02:05:29;;;;;;;22.85;16.15;;;6.90;65.80;;;;;;5025815;28;20209;-79
2022/03/25 02:07:56;;;;;;;19.20;15.40;;;7.00;65.70;;;;;;5037975;28;20207;-79
2022/03/25 02:10:23;;;;;;;21.05;14.35;;;7.00;65.40;;;;;;5022985;28;20293;-79
2022/03/25 02:12:50;;;;;;;18.60;14.38;;;7.00;65.30;;;;;;5035829;28;20608;-79
2022/03/25 02:15:17;;;;;;;21.98;17.35;;;6.90;65.30;;;;;;5026173;28;20348;-79
2022/03/25 02:17:44;;;;;;;21.15;14.55;;;6.90;65.30;;;;;;5020593;28;20203;-79
2022/03/25 02:20:12;;;;;;;21.75;16.02;;;6.80;65.20;;;;;;5029686;28;20222;-79
2022/03/25 02:22:41;;;;;;;23.42;15.70;;;6.80;65.50;;;;;;5039611;28;20210;-78
2022/03/25 02:25:09;;;;;;;20.58;15.40;;;6.80;65.60;;;;;;5032378;28;20210;-78
2022/03/25 02:27:38;;;;;;;19.05;14.85;;;6.70;65.70;;;;;;5021642;28;20207;-78
2022/03/25 02:30:07;;;;;;;24.67;15.88;;;6.70;66.00;;;;;;5030896;28;20600;-78
2022/03/25 02:32:34;;;;;;;19.65;14.73;;;6.70;66.10;;;;;;5038861;28;20641;-79
2022/03/25 02:35:01;;;;;;;20.52;15.25;;;6.70;66.10;;;;;;5026075;28;20223;-79
2022/03/25 02:37:28;;;;;;;21.00;14.50;;;6.60;66.30;;;;;;5029569;28;20207;-78
2022/03/25 02:39:56;;;;;;;22.92;16.05;;;6.70;66.70;;;;;;5034998;28;20594;-78
2022/03/25 02:42:23;;;;;;;23.80;15.77;;;6.70;66.80;;;;;;5033296;28;20210;-78
2022/03/25 02:44:50;;;;;;;18.63;15.88;;;6.70;67.00;;;;;;5023534;28;20203;-79
2022/03/25 02:47:17;;;;;;;22.42;16.23;;;6.70;66.90;;;;;;5042220;28;20593;-78
2022/03/25 02:49:44;;;;;;;21.35;14.20;;;6.70;67.00;;;;;;5038458;28;20241;-79
2022/03/25 02:52:11;;;;;;;19.77;14.70;;;6.60;67.00;;;;;;5017482;28;20222;-81
2022/03/25 02:54:38;;;;;;;17.08;14.45;;;6.60;67.30;;;;;;5018632;28;20207;-79
2022/03/25 02:57:06;;;;;;;19.30;15.82;;;6.60;67.70;;;;;;5020485;28;20226;-79
2022/03/25 02:59:33;;;;;;;21.80;14.82;;;6.50;68.30;;;;;;5028289;28;20223;-79
2022/03/25 03:02:00;;;;;;;21.60;16.75;;;6.50;68.90;;;;;;5037696;28;20217;-79
2022/03/25 03:04:27;;;;;;;17.58;15.02;;;6.50;69.30;;;;;;5026839;28;20207;-79
2022/03/25 03:06:54;;;;;;;21.45;15.32;;;6.50;69.50;;;;;;5034765;28;20202;-79
2022/03/25 03:09:21;;;;;;;21.45;14.98;;;6.50;69.50;;;;;;5028100;28;20701;-79
2022/03/25 03:11:47;;;;;;;19.27;13.63;;;6.50;70.60;;;;;;5016709;28;20747;-79
2022/03/25 03:14:16;;;;;;;20.17;14.45;;;6.40;69.80;;;;;;5020963;28;20645;-79
2022/03/25 03:16:42;;;;;;;17.83;14.20;;;6.40;70.10;;;;;;5032998;28;20252;-79
2022/03/25 03:19:09;;;;;;;18.75;14.43;;;6.40;70.10;;;;;;5030262;28;20656;-79
2022/03/25 03:21:36;;;;;;;18.35;16.40;;;6.40;70.00;;;;;;5016378;28;20211;-79
2022/03/25 03:24:04;;;;;;;18.58;14.40;;;6.30;70.00;;;;;;5018098;28;20199;-79
2022/03/25 03:26:31;;;;;;;20.10;14.35;;;6.30;70.20;;;;;;5016415;28;20206;-78
2022/03/25 03:28:58;;;;;;;19.52;14.45;;;6.30;70.20;;;;;;5021653;28;20206;-79
2022/03/25 03:31:26;;;;;;;20.70;15.35;;;6.30;69.90;;;;;;5035633;28;20836;-79
2022/03/25 03:33:52;;;;;;;19.95;15.55;;;6.30;69.70;;;;;;5031043;28;20830;-79
2022/03/25 03:36:19;;;;;;;16.90;14.70;;;6.30;70.60;;;;;;5028500;28;20226;-79
2022/03/25 03:38:46;;;;;;;19.10;14.52;;;6.30;70.30;;;;;;5037726;28;20699;-78
2022/03/25 03:41:12;;;;;;;20.63;16.13;;;6.20;69.40;;;;;;5023243;28;20211;-78
2022/03/25 03:43:39;;;;;;;20.58;14.88;;;6.20;69.30;;;;;;5042084;28;20213;-78
2022/03/25 03:46:06;;;;;;;23.40;16.30;;;6.20;69.60;;;;;;5030417;28;20672;-78
2022/03/25 03:48:34;;;;;;;19.90;15.57;;;6.10;70.30;;;;;;5022149;28;20218;-78
2022/03/25 03:51:01;;;;;;;20.23;15.13;;;6.10;70.50;;;;;;5030633;28;20237;-78
2022/03/25 03:53:27;;;;;;;17.92;14.85;;;6.10;70.70;;;;;;5038292;28;20203;-77
2022/03/25 03:55:54;;;;;;;19.55;14.48;;;6.10;70.60;;;;;;5029615;28;20218;-78
2022/03/25 03:58:22;;;;;;;17.48;15.38;;;6.10;70.90;;;;;;5039777;28;20210;-78
2022/03/25 04:00:49;;;;;;;23.35;16.38;;;6.00;71.00;;;;;;5021936;28;20234;-78
2022/03/25 04:03:16;;;;;;;22.20;15.80;;;6.10;71.60;;;;;;5022725;28;20211;-78
2022/03/25 04:05:44;;;;;;;21.45;15.65;;;6.00;71.60;;;;;;5031293;28;20202;-78
2022/03/25 04:08:11;;;;;;;24.50;15.25;;;6.00;71.90;;;;;;5022225;28;20211;-78
2022/03/25 04:10:38;;;;;;;24.70;16.00;;;6.00;72.30;;;;;;5021504;28;20234;-77
2022/03/25 04:13:05;;;;;;;21.90;15.27;;;5.90;72.60;;;;;;5021948;28;20214;-78
2022/03/25 04:15:32;;;;;;;23.27;15.90;;;5.90;72.70;;;;;;5021253;28;20219;-78
2022/03/25 04:17:59;;;;;;;21.85;14.55;;;5.90;72.80;;;;;;5020787;28;20214;-77
2022/03/25 04:20:26;;;;;;;20.65;15.80;;;5.80;72.80;;;;;;5021926;28;20528;-78
2022/03/25 04:22:54;;;;;;;23.48;16.67;;;5.80;72.70;;;;;;5021907;28;20206;-78
2022/03/25 04:25:21;;;;;;;21.75;15.00;;;5.80;73.00;;;;;;5021090;28;20665;-78
2022/03/25 04:27:53;;;;;;;24.73;15.60;;;5.80;73.40;;;;;;5021098;28;20210;-78
2022/03/25 04:30:21;;;;;;;18.73;14.60;;;5.80;74.20;;;;;;5020788;28;20682;-78
2022/03/25 04:32:48;;;;;;;19.75;14.00;;;5.70;73.40;;;;;;5021154;28;20731;-78
2022/03/25 04:35:15;;;;;;;21.90;15.55;;;5.70;73.40;;;;;;5020944;28;20229;-78
2022/03/25 04:37:42;;;;;;;20.52;14.50;;;5.70;73.60;;;;;;5020631;28;20211;-78
2022/03/25 04:40:12;;;;;;;27.42;14.15;;;5.70;73.60;;;;;;5020081;28;20226;-79
2022/03/25 04:42:38;;;;;;;19.73;13.52;;;5.70;73.70;;;;;;5020116;28;20210;-77
2022/03/25 04:45:06;;;;;;;21.13;14.60;;;5.70;74.00;;;;;;5020359;28;20206;-78
2022/03/25 04:47:33;;;;;;;21.85;15.57;;;5.70;74.60;;;;;;5019096;28;20207;-77
2022/03/25 04:49:59;;;;;;;22.35;15.50;;;5.70;75.00;;;;;;5019055;28;20744;-77
2022/03/25 04:52:26;;;;;;;24.95;16.75;;;5.70;75.10;;;;;;5020281;28;20214;-78
2022/03/25 04:54:53;;;;;;;21.73;15.63;;;5.70;75.40;;;;;;5019276;28;20203;-78
2022/03/25 04:57:21;;;;;;;19.30;16.15;;;5.70;75.50;;;;;;5020066;28;20231;-78
2022/03/25 04:59:48;;;;;;;20.80;17.23;;;5.60;75.70;;;;;;5019780;28;20317;-78
2022/03/25 05:02:15;;;;;;;19.30;17.20;;;5.50;76.20;;;;;;5020063;28;20211;-78
2022/03/25 05:04:42;;;;;;;19.67;14.50;;;5.50;76.20;;;;;;5019735;28;20203;-78
2022/03/25 05:07:14;;;;;;;21.25;15.57;;;5.50;76.50;;;;;;5020060;28;20210;-78
2022/03/25 05:09:41;;;;;;;21.77;15.25;;;5.50;77.30;;;;;;5019490;28;20230;-78
2022/03/25 05:12:08;;;;;;;22.75;18.13;;;5.40;77.60;;;;;;5019691;28;20225;-78
2022/03/25 05:14:37;;;;;;;18.75;14.23;;;5.40;77.90;;;;;;5020151;28;20209;-78
2022/03/25 05:17:05;;;;;;;23.70;17.42;;;5.40;77.90;;;;;;5019399;28;20246;-78
2022/03/25 05:19:32;;;;;;;24.23;16.40;;;5.40;77.90;;;;;;5018527;28;20219;-78
2022/03/25 05:21:58;;;;;;;19.65;15.82;;;5.30;78.20;;;;;;5019226;28;20214;-78
2022/03/25 05:24:26;;;;;;;29.23;16.80;;;5.30;79.00;;;;;;5022522;28;20210;-78
2022/03/25 05:26:53;;;;;;;24.52;17.33;;;5.30;79.70;;;;;;5039661;28;20211;-78
2022/03/25 05:29:20;;;;;;;20.83;18.50;;;5.30;80.50;;;;;;5033914;28;20258;-78
2022/03/25 05:31:48;;;;;;;23.88;17.27;;;5.20;80.80;;;;;;5021407;28;20207;-78
2022/03/25 05:34:15;;;;;;;20.45;16.50;;;5.20;81.60;;;;;;5026739;28;20205;-78
2022/03/25 05:36:41;;;;;;;18.63;14.15;;;5.20;82.10;;;;;;5042962;28;20784;-78
2022/03/25 05:39:08;;;;;;;21.77;15.27;;;5.20;82.40;;;;;;5038968;28;20218;-78
2022/03/25 05:41:35;;;;;;;23.60;16.55;;;5.20;82.80;;;;;;5022611;28;20211;-78
2022/03/25 05:44:02;;;;;;;19.50;15.73;;;5.20;82.80;;;;;;5024212;28;20217;-79
2022/03/25 05:46:29;;;;;;;20.20;14.75;;;5.20;82.90;;;;;;5041911;28;20208;-78
2022/03/25 05:48:57;;;;;;;28.30;17.73;;;5.20;83.30;;;;;;5040900;28;20285;-78
2022/03/25 05:51:24;;;;;;;23.52;16.13;;;5.30;83.50;;;;;;5023294;28;20215;-78
2022/03/25 05:53:50;;;;;;;21.27;15.10;;;5.30;83.60;;;;;;5023304;28;20215;-78
2022/03/25 05:56:17;;;;;;;20.52;15.63;;;5.30;83.50;;;;;;5043025;28;20251;-78
2022/03/25 05:58:44;;;;;;;21.45;14.20;;;5.30;83.30;;;;;;5041031;28;20220;-78
2022/03/25 06:01:11;;;;;;;27.67;17.17;;;5.40;83.30;;;;;;5042476;28;20207;-78
2022/03/25 06:03:37;;;;;;;23.80;19.55;;;5.40;83.30;;;;;;5043619;28;20210;-78
2022/03/25 06:06:07;;;;;;;27.35;20.60;;;5.40;83.40;;;;;;5024472;28;20199;-79
2022/03/25 06:08:34;;;;;;;25.77;16.73;;;5.50;83.40;;;;;;5024816;28;20210;-79
2022/03/25 06:11:01;;;;;;;27.65;16.80;;;5.50;83.30;;;;;;5024938;28;20231;-78
2022/03/25 06:13:28;;;;;;;21.92;16.60;;;5.50;82.70;;;;;;5024472;28;20203;-79
2022/03/25 06:15:55;;;;;;;23.58;16.23;;;5.60;82.80;;;;;;5024168;28;20223;-78
2022/03/25 06:18:23;;;;;;;24.80;18.08;;;5.60;82.80;;;;;;5023851;28;20207;-79
2022/03/25 06:20:50;;;;;;;26.05;18.30;;;5.70;82.50;;;;;;5024621;28;20337;-78
2022/03/25 06:23:18;;;;;;;25.15;17.23;;;5.70;83.00;;;;;;5024389;28;20207;-79
2022/03/25 06:25:44;;;;;;;23.02;16.73;;;5.90;82.30;;;;;;5024501;28;20570;-79
2022/03/25 06:28:11;;;;;;;25.88;17.02;;;5.90;82.10;;;;;;5024573;28;20211;-78
2022/03/25 06:30:39;;;;;;;21.20;16.13;;;6.00;82.00;;;;;;5023973;28;20238;-78
2022/03/25 06:33:09;;;;;;;23.83;17.40;;;6.10;82.00;;;;;;5024711;28;20207;-79
2022/03/25 06:35:38;;;;;;;21.35;16.77;;;6.10;81.40;;;;;;5024291;28;20207;-79
2022/03/25 06:38:05;;;;;;;19.70;16.67;;;6.20;81.20;;;;;;5024579;28;20211;-79
2022/03/25 06:40:33;;;;;;;26.50;18.58;;;6.20;81.00;;;;;;5023501;28;20227;-79
2022/03/25 06:43:00;;;;;;;23.38;16.67;;;6.30;80.80;;;;;;5023089;28;20686;-79
2022/03/25 06:45:28;;;;;;;28.95;18.10;;;6.40;80.70;;;;;;5023664;28;20206;-79
2022/03/25 06:47:55;;;;;;;24.80;17.58;;;6.20;80.30;;;;;;5024338;28;20669;-79
2022/03/25 06:50:24;;;;;;;22.70;17.65;;;6.20;80.30;;;;;;5024195;28;20241;-79
2022/03/25 06:52:51;;;;;;;20.85;16.85;;;6.40;80.20;;;;;;5023071;28;20297;-81
2022/03/25 06:55:19;;;;;;;26.52;16.73;;;6.60;80.10;;;;;;5023626;28;20650;-78
2022/03/25 06:57:48;;;;;;;26.25;18.90;;;6.70;80.40;;;;;;5023368;28;20234;-79
2022/03/25 07:00:16;;;;;;;20.33;16.13;;;6.80;79.80;;;;;;5023530;28;20234;-79
2022/03/25 07:02:44;;;;;;;24.88;17.90;;;7.00;79.60;;;;;;5022943;28;20201;-79
2022/03/25 07:05:12;;;;;;;27.75;19.73;;;7.10;78.80;;;;;;5022573;28;20203;-80
2022/03/25 07:07:41;;;;;;;23.83;18.77;;;7.20;77.40;;;;;;5021130;28;20210;-80
2022/03/25 07:10:10;;;;;;;23.20;16.17;;;7.30;76.50;;;;;;5019347;28;20234;-79
2022/03/25 07:12:38;;;;;;;26.92;20.23;;;7.40;75.90;;;;;;5018975;28;20206;-80
2022/03/25 07:15:08;;;;;;;27.00;17.60;;;7.40;75.10;;;;;;5019887;28;20294;-80
2022/03/25 07:17:37;;;;;;;20.38;16.23;;;7.50;75.90;;;;;;5020159;28;20239;-80
2022/03/25 07:20:05;;;;;;;23.20;18.67;;;7.70;76.10;;;;;;5019741;28;20233;-78
2022/03/25 07:22:33;;;;;;;28.67;19.80;;;7.80;75.50;;;;;;5019209;28;20212;-80
2022/03/25 07:24:59;;;;;;;24.85;19.10;;;8.00;75.40;;;;;;5018620;28;20246;-80
2022/03/25 07:27:26;;;;;;;26.23;19.83;;;8.10;74.90;;;;;;5018183;28;20222;-80
2022/03/25 07:29:53;;;;;;;21.33;18.83;;;8.20;74.80;;;;;;5024195;28;20231;-78
2022/03/25 07:32:21;;;;;;;28.38;20.42;;;8.30;74.90;;;;;;5029995;28;20212;-80
2022/03/25 07:34:48;;;;;;;26.83;19.23;;;8.30;75.10;;;;;;5029379;28;20218;-80
2022/03/25 07:37:14;;;;;;;26.88;19.42;;;8.30;75.60;;;;;;5028623;28;20220;-80
2022/03/25 07:39:42;;;;;;;24.67;19.15;;;8.40;75.60;;;;;;5028546;28;20220;-80
2022/03/25 07:42:08;;;;;;;25.58;19.10;;;8.50;74.90;;;;;;5030856;28;20204;-80
2022/03/25 07:44:37;;;;;;;24.13;19.52;;;8.60;74.80;;;;;;5027591;28;20637;-80
2022/03/25 07:47:04;;;;;;;25.33;20.20;;;8.80;75.20;;;;;;5038903;28;20253;-80
2022/03/25 07:49:34;;;;;;;25.37;19.03;;;8.90;75.20;;;;;;5032124;28;20844;-80
2022/03/25 07:52:01;;;;;;;25.90;18.10;;;9.10;74.10;;;;;;5028604;28;20450;-80
2022/03/25 07:54:27;;;;;;;23.07;18.17;;;9.20;73.60;;;;;;5036447;28;20460;-80
2022/03/25 07:56:58;;;;;;;26.87;20.23;;;9.20;73.80;;;;;;5029770;28;20484;-80
2022/03/25 07:59:25;;;;;;;24.90;19.80;;;9.40;74.30;;;;;;5035124;28;20474;-80
2022/03/25 08:01:54;;;;;;;23.77;18.80;;;9.60;74.10;;;;;;5048720;28;20487;-81
2022/03/25 08:04:24;;;;;;;22.40;20.10;;;9.70;73.90;;;;;;5041440;28;20887;-81
2022/03/25 08:06:53;;;;;;;22.87;19.60;;;9.90;74.00;;;;;;5043588;28;20490;-81
2022/03/25 08:09:21;;;;;;;22.90;18.47;;;10.10;71.50;;;;;;5040095;28;20786;-83
2022/03/25 08:11:50;;;;;;;27.53;19.97;;;10.30;70.90;;;;;;5024666;28;20461;-82
2022/03/25 08:14:18;;;;;;;22.57;19.90;;;10.40;70.30;;;;;;5041252;28;20462;-84
2022/03/25 08:16:46;;;;;;;26.90;20.00;;;10.50;70.80;;;;;;5028318;28;20830;-84
2022/03/25 08:19:15;;;;;;;24.40;21.20;;;10.70;69.70;;;;;;5020556;28;20475;-85
2022/03/25 08:21:44;;;;;;;25.73;21.17;;;10.80;69.20;;;;;;5036343;28;20457;-84
2022/03/25 08:29:57;;;;;;;27.47;19.40;;;11.30;67.50;;;;;;5021476;28;20883;-84
2022/03/25 08:32:34;;;;;;;26.43;22.30;;;11.40;66.10;;;;;;5021035;28;20466;-84
2022/03/25 08:35:05;;;;;;;27.67;20.63;;;11.50;66.10;;;;;;5022229;28;20839;-84
2022/03/25 08:37:50;;;;;;;26.03;20.00;;;11.60;66.10;;;;;;5022693;28;20489;-84
2022/03/25 08:40:47;;;;;;;25.13;20.63;;;11.70;67.20;;;;;;5022210;28;20538;-84
2022/03/25 08:43:21;;;;;;;24.73;19.67;;;11.90;66.30;;;;;;5023657;28;20463;-84
2022/03/25 08:45:50;;;;;;;25.97;20.47;;;12.00;64.90;;;;;;5024042;28;20514;-84
2022/03/25 08:48:17;;;;;;;27.93;19.87;;;12.10;64.50;;;;;;5023380;28;20450;-84
2022/03/25 08:50:44;;;;;;;27.80;20.27;;;12.10;57.50;;;;;;5022818;28;20982;-84
2022/03/25 08:53:10;;;;;;;24.37;20.30;;;12.10;56.80;;;;;;5023348;28;20454;-84
2022/03/25 08:55:39;;;;;;;28.70;23.17;;;12.10;56.60;;;;;;5024005;28;20895;-84
2022/03/25 08:58:06;;;;;;;26.10;20.40;;;12.30;59.80;;;;;;5023718;28;20556;-84
2022/03/25 09:00:33;;;;;;;26.90;20.77;;;12.60;62.30;;;;;;5023118;28;20504;-84
2022/03/25 09:03:00;;;;;;;27.77;20.70;;;12.80;62.90;;;;;;5023820;28;20552;-84
2022/03/25 09:05:26;;;;;;;28.90;21.00;;;13.00;63.50;;;;;;5023967;28;20454;-84
2022/03/25 09:07:53;;;;;;;32.37;23.03;;;13.20;63.20;;;;;;5024458;28;20452;-84
2022/03/25 09:10:20;;;;;;;27.43;22.50;;;13.30;61.20;;;;;;5023579;28;20480;-84
2022/03/25 09:12:48;;;;;;;29.43;22.50;;;13.30;60.80;;;;;;5023451;28;20450;-84
2022/03/25 09:15:16;;;;;;;28.33;20.83;;;13.50;59.50;;;;;;5023854;28;20540;-84
2022/03/25 09:17:44;;;;;;;25.53;21.43;;;13.60;60.00;;;;;;5023736;28;21085;-84
2022/03/25 09:20:14;;;;;;;31.63;22.60;;;13.70;60.60;;;;;;5023357;28;21011;-84
2022/03/25 09:22:41;;;;;;;25.80;21.13;;;13.80;59.90;;;;;;5023195;28;20452;-84
2022/03/25 09:25:09;;;;;;;26.90;21.90;;;14.00;60.60;;;;;;5022461;28;20509;-84
2022/03/25 09:27:36;;;;;;;27.83;22.33;;;14.10;58.20;;;;;;5023789;28;20477;-84
2022/03/25 09:30:06;;;;;;;30.40;22.40;;;13.90;57.20;;;;;;5023535;28;20525;-84
2022/03/25 09:32:33;;;;;;;26.00;22.27;;;14.10;58.30;;;;;;5024689;28;20864;-84
2022/03/25 09:35:13;;;;;;;26.50;23.70;;;14.20;59.50;;;;;;5026364;28;20485;-84
2022/03/25 09:37:42;;;;;;;28.60;20.57;;;14.30;58.20;;;;;;5028232;28;20486;-84
2022/03/25 09:40:12;;;;;;;28.13;21.87;;;14.50;58.90;;;;;;5030089;28;20991;-84
2022/03/25 09:42:39;;;;;;;26.87;20.87;;;14.70;58.30;;;;;;5032932;28;20451;-84
2022/03/25 09:45:10;;;;;;;27.03;23.40;;;14.80;57.60;;;;;;5027016;28;20443;-84
2022/03/25 09:47:37;;;;;;;34.57;22.27;;;14.90;58.60;;;;;;5020276;28;20447;-84
2022/03/25 09:50:07;;;;;;;31.03;23.20;;;15.00;58.00;;;;;;5026093;28;20485;-84
2022/03/25 09:52:34;;;;;;;29.90;23.63;;;15.00;58.20;;;;;;5032987;28;20514;-84
2022/03/25 09:55:02;;;;;;;27.80;23.10;;;15.10;56.80;;;;;;5033447;28;20505;-84
2022/03/25 09:57:30;;;;;;;27.00;21.90;;;15.30;57.00;;;;;;5033070;28;20493;-84
2022/03/25 09:59:57;;;;;;;27.53;23.90;;;15.50;57.10;;;;;;5031445;28;20897;-84
2022/03/25 10:02:25;;;;;;;25.93;21.27;;;15.60;57.10;;;;;;5026478;28;20750;-85
2022/03/25 10:04:53;;;;;;;30.40;21.70;;;15.80;56.90;;;;;;5022483;28;20462;-84
2022/03/25 10:07:21;;;;;;;26.40;22.50;;;16.00;56.80;;;;;;5019314;28;20453;-84
2022/03/25 10:09:50;;;;;;;25.50;21.47;;;16.20;56.30;;;;;;5018409;28;20484;-85
2022/03/25 10:12:23;;;;;;;28.30;23.77;;;16.30;56.00;;;;;;5019602;28;20878;-85
2022/03/25 10:14:51;;;;;;;26.50;22.47;;;16.50;54.90;;;;;;5020721;28;20821;-85
2022/03/25 10:17:18;;;;;;;27.03;23.97;;;16.70;55.00;;;;;;5016014;28;20479;-85
2022/03/25 10:19:52;;;;;;;28.40;21.90;;;17.00;54.80;;;;;;5017332;28;20484;-85
2022/03/25 10:22:20;;;;;;;25.17;21.80;;;17.20;54.10;;;;;;5017477;28;20464;-84
2022/03/25 10:24:49;;;;;;;29.23;22.73;;;17.40;53.90;;;;;;5017099;28;20471;-85
2022/03/25 10:27:22;;;;;;;27.07;23.10;;;17.50;51.60;;;;;;5017849;28;20483;-85
2022/03/25 10:29:50;;;;;;;25.90;23.20;;;17.40;49.20;;;;;;5017541;28;20476;-85
2022/03/25 10:32:19;;;;;;;26.70;23.10;;;17.30;47.10;;;;;;5020130;28;20468;-85
2022/03/25 10:35:02;;;;;;;26.73;21.70;;;17.10;47.20;;;;;;5020212;28;20488;-84
2022/03/25 10:37:29;;;;;;;26.10;21.57;;;17.00;45.40;;;;;;5019053;28;20489;-84
2022/03/25 10:39:56;;;;;;;32.50;23.20;;;17.00;45.90;;;;;;5023330;28;20469;-84
2022/03/25 10:42:23;;;;;;;39.20;27.00;;;17.00;45.50;;;;;;5017924;28;20456;-85
2022/03/25 10:44:50;;;;;;;30.30;25.03;;;17.00;46.10;;;;;;5017689;28;20575;-85
2022/03/25 10:47:26;;;;;;;29.27;23.73;;;17.20;44.80;;;;;;5017112;28;20449;-85
2022/03/25 10:49:54;;;;;;;26.63;21.47;;;17.20;44.00;;;;;;5017916;28;20488;-85
2022/03/25 10:52:25;;;;;;;25.83;23.07;;;16.80;43.10;;;;;;5016636;28;20441;-84
2022/03/25 10:54:52;;;;;;;29.43;23.53;;;17.00;44.00;;;;;;5015926;28;20457;-85
2022/03/25 10:57:19;;;;;;;29.87;24.90;;;17.30;45.20;;;;;;5015834;28;20453;-85
2022/03/25 10:59:59;;;;;;;27.90;22.17;;;17.40;43.00;;;;;;5015673;28;20478;-85
2022/03/25 11:02:26;;;;;;;28.90;22.77;;;17.60;42.90;;;;;;5014926;28;20456;-85
2022/03/25 11:04:55;;;;;;;30.20;23.30;;;17.70;42.30;;;;;;5015332;28;20461;-83
2022/03/25 11:07:24;;;;;;;25.00;21.47;;;17.90;41.40;;;;;;5015294;28;20449;-84
2022/03/25 11:09:52;;;;;;;24.17;21.67;;;18.30;40.50;;;;;;5015599;28;20461;-84
2022/03/25 11:12:20;;;;;;;27.17;23.20;;;18.70;39.40;;;;;;5015111;28;20818;-85
2022/03/25 11:14:46;;;;;;;24.67;21.90;;;19.00;38.50;;;;;;5015260;28;20454;-84
2022/03/25 11:17:15;;;;;;;29.10;25.30;;;19.40;38.10;;;;;;5014852;28;20457;-85
2022/03/25 11:19:44;;;;;;;27.80;22.70;;;20.00;38.60;;;;;;5014663;28;20477;-85
2022/03/25 11:22:12;;;;;;;25.10;22.27;;;20.40;37.50;;;;;;5014261;28;20509;-85
2022/03/25 11:24:46;;;;;;;24.77;22.27;;;20.80;36.30;;;;;;5014486;28;20482;-85
2022/03/25 11:27:20;;;;;;;30.83;27.53;;;21.40;36.60;;;;;;5014570;28;20461;-83
2022/03/25 11:29:49;;;;;;;25.93;23.27;;;22.20;35.40;;;;;;5022667;28;21014;-86
2022/03/25 11:32:17;;;;;;;25.20;22.53;;;22.40;33.60;;;;;;5022822;28;20529;-84
2022/03/25 11:34:47;;;;;;;25.27;22.70;;;23.00;36.30;;;;;;5023076;28;20452;-84
2022/03/25 11:37:22;;;;;;;24.63;22.07;;;23.70;33.00;;;;;;5022968;28;20457;-85
2022/03/25 11:40:28;;;;;;;26.03;22.87;;;24.20;31.90;;;;;;5023486;28;20474;-85
2022/03/25 11:42:56;;;;;;;18.93;16.70;;;24.70;32.00;;;;;;5021913;28;20654;-84
2022/03/25 11:45:37;;;;;;;22.60;20.20;;;25.50;32.00;;;;;;5022003;28;20486;-85
2022/03/25 11:48:39;;;;;;;22.83;20.27;;;26.40;30.00;;;;;;5022536;28;20485;-85
2022/03/25 11:51:30;;;;;;;22.90;20.70;;;27.20;28.80;;;;;;5021881;28;20473;-84
2022/03/25 11:53:57;;;;;;;22.67;20.47;;;27.40;28.30;;;;;;5021879;28;20435;-85
2022/03/25 11:56:26;;;;;;;23.77;21.30;;;27.00;27.30;;;;;;5022205;28;20445;-84
2022/03/25 11:59:03;;;;;;;22.47;20.27;;;26.50;27.10;;;;;;5021433;28;20452;-84
2022/03/25 12:01:32;;;;;;;19.93;17.87;;;26.70;27.10;;;;;;5037235;28;20456;-87
2022/03/25 12:04:00;;;;;;;25.80;22.27;;;26.90;26.90;;;;;;5037006;28;20438;-84
2022/03/25 12:06:29;;;;;;;21.33;19.17;;;27.00;26.80;;;;;;5022016;28;20461;-84
2022/03/25 12:08:58;;;;;;;23.57;21.27;;;27.40;27.60;;;;;;5020758;28;20507;-85
2022/03/25 12:11:55;;;;;;;23.10;21.00;;;27.70;26.00;;;;;;5020254;28;20460;-84
2022/03/25 12:14:26;;;;;;;21.40;19.43;;;28.40;26.60;;;;;;4961011;28;20536;-84
2022/03/25 12:17:03;;;;;;;20.87;18.87;;;28.80;25.20;;;;;;4969303;28;20523;-84
2022/03/25 12:19:47;;;;;;;22.50;20.10;;;29.20;25.50;;;;;;5020944;28;20532;-85
2022/03/25 12:22:34;;;;;;;21.83;19.70;;;29.50;25.00;;;;;;5020802;28;20529;-86
2022/03/25 12:25:13;;;;;;;22.30;20.03;;;29.90;24.50;;;;;;5020775;28;20486;-85
2022/03/25 12:27:43;;;;;;;24.37;21.97;;;29.50;24.80;;;;;;5017794;28;20554;-83
2022/03/25 12:30:11;;;;;;;24.50;21.40;;;30.00;25.40;;;;;;5013111;28;20477;-84
2022/03/25 12:32:43;;;;;;;23.73;21.37;;;30.00;24.70;;;;;;5013457;28;20457;-84
2022/03/25 12:35:13;;;;;;;23.60;21.20;;;30.70;25.20;;;;;;5012952;28;20439;-84
2022/03/25 12:38:00;;;;;;;23.20;20.90;;;31.30;24.20;;;;;;5013170;28;20825;-84
2022/03/25 12:40:29;;;;;;;25.47;23.17;;;31.50;23.90;;;;;;5012419;28;20473;-84
2022/03/25 12:42:59;;;;;;;24.57;22.33;;;32.00;23.80;;;;;;5013952;28;20464;-84
2022/03/25 12:45:30;;;;;;;23.30;21.13;;;31.70;23.40;;;;;;5012652;28;20486;-84